sensor_id;sensor_type;location;lat;lon;timestamp;P1;durP1;ratioP1;P2;durP2;ratioP2
78718;SDS011;68046;53.334;9.538;2023-11-19T00:00:05;4.18;;;2.53;;
78718;SDS011;68046;53.334;9.538;2023-11-19T00:02:32;5.57;;;2.80;;
78718;SDS011;68046;53.334;9.538;2023-11-19T00:04:58;4.18;;;2.03;;
78718;SDS011;68046;53.334;9.538;2023-11-19T00:07:23;3.40;;;2.13;;
78718;SDS011;68046;53.334;9.538;2023-11-19T00:09:49;2.92;;;2.22;;
78718;SDS011;68046;53.334;9.538;2023-11-19T00:12:14;3.42;;;2.10;;
78718;SDS011;68046;53.334;9.538;2023-11-19T00:14:41;4.05;;;2.65;;
78718;SDS011;68046;53.334;9.538;2023-11-19T00:17:06;4.15;;;2.72;;
78718;SDS011;68046;53.334;9.538;2023-11-19T00:19:32;5.22;;;2.47;;
78718;SDS011;68046;53.334;9.538;2023-11-19T00:21:57;3.28;;;1.98;;
78718;SDS011;68046;53.334;9.538;2023-11-19T00:24:22;2.90;;;2.10;;
78718;SDS011;68046;53.334;9.538;2023-11-19T00:26:48;6.90;;;1.88;;
78718;SDS011;68046;53.334;9.538;2023-11-19T00:29:13;4.05;;;2.17;;
78718;SDS011;68046;53.334;9.538;2023-11-19T00:31:40;2.20;;;1.63;;
78718;SDS011;68046;53.334;9.538;2023-11-19T00:34:05;3.97;;;2.17;;
78718;SDS011;68046;53.334;9.538;2023-11-19T00:36:31;3.28;;;1.90;;
78718;SDS011;68046;53.334;9.538;2023-11-19T00:38:56;4.38;;;1.88;;
78718;SDS011;68046;53.334;9.538;2023-11-19T00:41:22;3.05;;;1.88;;
78718;SDS011;68046;53.334;9.538;2023-11-19T00:43:47;3.17;;;1.67;;
78718;SDS011;68046;53.334;9.538;2023-11-19T00:46:13;2.25;;;1.45;;
78718;SDS011;68046;53.334;9.538;2023-11-19T00:48:39;3.25;;;1.95;;
78718;SDS011;68046;53.334;9.538;2023-11-19T00:51:05;2.97;;;1.73;;
78718;SDS011;68046;53.334;9.538;2023-11-19T00:53:31;2.47;;;1.77;;
78718;SDS011;68046;53.334;9.538;2023-11-19T00:55:57;3.28;;;1.98;;
78718;SDS011;68046;53.334;9.538;2023-11-19T00:58:22;2.88;;;1.70;;
78718;SDS011;68046;53.334;9.538;2023-11-19T01:00:48;2.90;;;1.92;;
78718;SDS011;68046;53.334;9.538;2023-11-19T01:03:13;2.30;;;1.90;;
78718;SDS011;68046;53.334;9.538;2023-11-19T01:05:40;2.72;;;1.90;;
78718;SDS011;68046;53.334;9.538;2023-11-19T01:08:06;2.50;;;1.67;;
78718;SDS011;68046;53.334;9.538;2023-11-19T01:10:32;2.58;;;1.65;;
78718;SDS011;68046;53.334;9.538;2023-11-19T01:12:57;1.90;;;1.38;;
78718;SDS011;68046;53.334;9.538;2023-11-19T01:15:23;1.88;;;1.40;;
78718;SDS011;68046;53.334;9.538;2023-11-19T01:17:49;2.90;;;1.55;;
78718;SDS011;68046;53.334;9.538;2023-11-19T01:20:14;2.85;;;1.70;;
78718;SDS011;68046;53.334;9.538;2023-11-19T01:22:41;2.80;;;1.80;;
78718;SDS011;68046;53.334;9.538;2023-11-19T01:25:06;2.17;;;1.58;;
78718;SDS011;68046;53.334;9.538;2023-11-19T01:27:32;3.13;;;1.70;;
78718;SDS011;68046;53.334;9.538;2023-11-19T01:29:57;3.03;;;1.90;;
78718;SDS011;68046;53.334;9.538;2023-11-19T01:32:23;3.67;;;1.92;;
78718;SDS011;68046;53.334;9.538;2023-11-19T01:34:48;3.13;;;1.77;;
78718;SDS011;68046;53.334;9.538;2023-11-19T01:37:14;2.88;;;2.20;;
78718;SDS011;68046;53.334;9.538;2023-11-19T01:39:41;3.35;;;1.98;;
78718;SDS011;68046;53.334;9.538;2023-11-19T01:42:08;2.70;;;1.90;;
78718;SDS011;68046;53.334;9.538;2023-11-19T01:44:34;3.95;;;2.20;;
78718;SDS011;68046;53.334;9.538;2023-11-19T01:46:59;4.00;;;2.28;;
78718;SDS011;68046;53.334;9.538;2023-11-19T01:49:26;6.32;;;2.83;;
78718;SDS011;68046;53.334;9.538;2023-11-19T01:51:51;4.05;;;2.50;;
78718;SDS011;68046;53.334;9.538;2023-11-19T01:54:17;5.03;;;2.85;;
78718;SDS011;68046;53.334;9.538;2023-11-19T01:56:44;4.47;;;2.78;;
78718;SDS011;68046;53.334;9.538;2023-11-19T01:59:09;5.38;;;3.17;;
78718;SDS011;68046;53.334;9.538;2023-11-19T02:01:37;5.38;;;2.95;;
78718;SDS011;68046;53.334;9.538;2023-11-19T02:04:03;6.78;;;2.95;;
78718;SDS011;68046;53.334;9.538;2023-11-19T02:06:29;4.78;;;3.08;;
78718;SDS011;68046;53.334;9.538;2023-11-19T02:08:56;6.50;;;3.30;;
78718;SDS011;68046;53.334;9.538;2023-11-19T02:11:22;5.45;;;3.10;;
78718;SDS011;68046;53.334;9.538;2023-11-19T02:13:49;6.10;;;3.20;;
78718;SDS011;68046;53.334;9.538;2023-11-19T02:16:14;5.72;;;3.47;;
78718;SDS011;68046;53.334;9.538;2023-11-19T02:18:40;6.00;;;3.40;;
78718;SDS011;68046;53.334;9.538;2023-11-19T02:21:05;5.25;;;4.18;;
78718;SDS011;68046;53.334;9.538;2023-11-19T02:23:31;6.43;;;3.92;;
78718;SDS011;68046;53.334;9.538;2023-11-19T02:26:02;6.90;;;4.10;;
78718;SDS011;68046;53.334;9.538;2023-11-19T02:28:33;6.10;;;3.83;;
78718;SDS011;68046;53.334;9.538;2023-11-19T02:31:00;6.32;;;4.18;;
78718;SDS011;68046;53.334;9.538;2023-11-19T02:33:26;8.02;;;3.95;;
78718;SDS011;68046;53.334;9.538;2023-11-19T02:35:51;7.05;;;4.13;;
78718;SDS011;68046;53.334;9.538;2023-11-19T02:38:17;9.13;;;3.72;;
78718;SDS011;68046;53.334;9.538;2023-11-19T02:40:42;8.05;;;4.35;;
78718;SDS011;68046;53.334;9.538;2023-11-19T02:43:07;6.50;;;4.18;;
78718;SDS011;68046;53.334;9.538;2023-11-19T02:45:34;6.78;;;4.00;;
78718;SDS011;68046;53.334;9.538;2023-11-19T02:48:00;7.03;;;4.35;;
78718;SDS011;68046;53.334;9.538;2023-11-19T02:50:25;7.45;;;4.43;;
78718;SDS011;68046;53.334;9.538;2023-11-19T02:52:51;7.22;;;4.45;;
78718;SDS011;68046;53.334;9.538;2023-11-19T02:55:18;7.55;;;4.88;;
78718;SDS011;68046;53.334;9.538;2023-11-19T02:57:44;8.48;;;4.30;;
78718;SDS011;68046;53.334;9.538;2023-11-19T03:00:10;8.10;;;4.07;;
78718;SDS011;68046;53.334;9.538;2023-11-19T03:02:39;9.35;;;4.43;;
78718;SDS011;68046;53.334;9.538;2023-11-19T03:05:05;7.60;;;4.20;;
78718;SDS011;68046;53.334;9.538;2023-11-19T03:07:31;7.82;;;4.43;;
78718;SDS011;68046;53.334;9.538;2023-11-19T03:09:56;7.97;;;4.90;;
78718;SDS011;68046;53.334;9.538;2023-11-19T03:12:21;9.88;;;5.30;;
78718;SDS011;68046;53.334;9.538;2023-11-19T03:14:47;11.27;;;5.88;;
78718;SDS011;68046;53.334;9.538;2023-11-19T03:17:12;11.68;;;5.70;;
78718;SDS011;68046;53.334;9.538;2023-11-19T03:19:39;14.70;;;6.80;;
78718;SDS011;68046;53.334;9.538;2023-11-19T03:22:04;14.43;;;6.20;;
78718;SDS011;68046;53.334;9.538;2023-11-19T03:24:30;14.23;;;6.35;;
78718;SDS011;68046;53.334;9.538;2023-11-19T03:26:55;13.68;;;6.68;;
78718;SDS011;68046;53.334;9.538;2023-11-19T03:29:21;15.07;;;7.18;;
78718;SDS011;68046;53.334;9.538;2023-11-19T03:31:46;17.98;;;8.65;;
78718;SDS011;68046;53.334;9.538;2023-11-19T03:34:12;26.95;;;9.07;;
78718;SDS011;68046;53.334;9.538;2023-11-19T03:36:38;18.90;;;8.52;;
78718;SDS011;68046;53.334;9.538;2023-11-19T03:39:04;20.88;;;9.82;;
78718;SDS011;68046;53.334;9.538;2023-11-19T03:41:29;22.27;;;9.18;;
78718;SDS011;68046;53.334;9.538;2023-11-19T03:43:55;20.58;;;8.98;;
78718;SDS011;68046;53.334;9.538;2023-11-19T03:46:21;23.23;;;8.35;;
78718;SDS011;68046;53.334;9.538;2023-11-19T03:48:47;23.17;;;9.98;;
78718;SDS011;68046;53.334;9.538;2023-11-19T03:51:12;25.92;;;10.82;;
78718;SDS011;68046;53.334;9.538;2023-11-19T03:53:39;23.33;;;9.80;;
78718;SDS011;68046;53.334;9.538;2023-11-19T03:56:05;30.48;;;12.07;;
78718;SDS011;68046;53.334;9.538;2023-11-19T03:58:31;23.55;;;10.23;;
78718;SDS011;68046;53.334;9.538;2023-11-19T04:00:56;29.63;;;12.60;;
78718;SDS011;68046;53.334;9.538;2023-11-19T04:03:22;26.52;;;12.07;;
78718;SDS011;68046;53.334;9.538;2023-11-19T04:05:47;26.90;;;11.75;;
78718;SDS011;68046;53.334;9.538;2023-11-19T04:08:13;32.58;;;12.27;;
78718;SDS011;68046;53.334;9.538;2023-11-19T04:10:39;30.23;;;12.57;;
78718;SDS011;68046;53.334;9.538;2023-11-19T04:13:05;33.15;;;12.52;;
78718;SDS011;68046;53.334;9.538;2023-11-19T04:15:30;29.92;;;12.35;;
78718;SDS011;68046;53.334;9.538;2023-11-19T04:17:56;38.90;;;14.45;;
78718;SDS011;68046;53.334;9.538;2023-11-19T04:20:21;38.03;;;14.23;;
78718;SDS011;68046;53.334;9.538;2023-11-19T04:22:47;33.10;;;14.18;;
78718;SDS011;68046;53.334;9.538;2023-11-19T04:25:12;31.65;;;13.32;;
78718;SDS011;68046;53.334;9.538;2023-11-19T04:27:39;42.72;;;16.27;;
78718;SDS011;68046;53.334;9.538;2023-11-19T04:30:06;36.75;;;14.55;;
78718;SDS011;68046;53.334;9.538;2023-11-19T04:32:32;33.20;;;13.50;;
78718;SDS011;68046;53.334;9.538;2023-11-19T04:34:57;36.97;;;13.13;;
78718;SDS011;68046;53.334;9.538;2023-11-19T04:37:23;40.53;;;14.23;;
78718;SDS011;68046;53.334;9.538;2023-11-19T04:39:48;38.15;;;15.07;;
78718;SDS011;68046;53.334;9.538;2023-11-19T04:42:13;36.20;;;14.27;;
78718;SDS011;68046;53.334;9.538;2023-11-19T04:44:40;34.33;;;13.50;;
78718;SDS011;68046;53.334;9.538;2023-11-19T04:47:08;45.80;;;13.48;;
78718;SDS011;68046;53.334;9.538;2023-11-19T04:49:33;52.05;;;14.15;;
78718;SDS011;68046;53.334;9.538;2023-11-19T04:51:58;38.22;;;14.57;;
78718;SDS011;68046;53.334;9.538;2023-11-19T04:54:24;49.30;;;16.20;;
78718;SDS011;68046;53.334;9.538;2023-11-19T04:56:49;40.78;;;16.42;;
78718;SDS011;68046;53.334;9.538;2023-11-19T04:59:15;45.97;;;14.05;;
78718;SDS011;68046;53.334;9.538;2023-11-19T05:01:46;33.70;;;14.52;;
78718;SDS011;68046;53.334;9.538;2023-11-19T05:04:11;43.05;;;14.48;;
78718;SDS011;68046;53.334;9.538;2023-11-19T05:06:37;39.72;;;14.63;;
78718;SDS011;68046;53.334;9.538;2023-11-19T05:09:02;37.75;;;14.80;;
78718;SDS011;68046;53.334;9.538;2023-11-19T05:11:28;43.17;;;14.52;;
78718;SDS011;68046;53.334;9.538;2023-11-19T05:13:53;39.10;;;14.27;;
78718;SDS011;68046;53.334;9.538;2023-11-19T05:16:19;47.13;;;13.55;;
78718;SDS011;68046;53.334;9.538;2023-11-19T05:18:46;42.47;;;14.15;;
78718;SDS011;68046;53.334;9.538;2023-11-19T05:21:11;36.78;;;15.07;;
78718;SDS011;68046;53.334;9.538;2023-11-19T05:23:37;40.50;;;14.02;;
78718;SDS011;68046;53.334;9.538;2023-11-19T05:26:02;45.45;;;15.30;;
78718;SDS011;68046;53.334;9.538;2023-11-19T05:28:28;47.28;;;13.68;;
78718;SDS011;68046;53.334;9.538;2023-11-19T05:30:54;35.38;;;14.02;;
78718;SDS011;68046;53.334;9.538;2023-11-19T05:33:19;34.38;;;14.15;;
78718;SDS011;68046;53.334;9.538;2023-11-19T05:35:46;34.63;;;13.68;;
78718;SDS011;68046;53.334;9.538;2023-11-19T05:38:11;45.65;;;14.10;;
78718;SDS011;68046;53.334;9.538;2023-11-19T05:40:37;37.53;;;16.02;;
78718;SDS011;68046;53.334;9.538;2023-11-19T05:43:02;41.05;;;15.15;;
78718;SDS011;68046;53.334;9.538;2023-11-19T05:45:28;39.63;;;13.85;;
78718;SDS011;68046;53.334;9.538;2023-11-19T05:47:53;37.28;;;13.93;;
78718;SDS011;68046;53.334;9.538;2023-11-19T05:50:19;44.33;;;15.32;;
78718;SDS011;68046;53.334;9.538;2023-11-19T05:52:45;35.35;;;14.35;;
78718;SDS011;68046;53.334;9.538;2023-11-19T05:55:11;40.88;;;13.25;;
78718;SDS011;68046;53.334;9.538;2023-11-19T05:57:37;33.83;;;12.88;;
78718;SDS011;68046;53.334;9.538;2023-11-19T06:00:03;45.53;;;14.40;;
78718;SDS011;68046;53.334;9.538;2023-11-19T06:02:36;42.72;;;12.82;;
78718;SDS011;68046;53.334;9.538;2023-11-19T06:05:02;29.95;;;11.90;;
78718;SDS011;68046;53.334;9.538;2023-11-19T06:07:28;37.78;;;13.27;;
78718;SDS011;68046;53.334;9.538;2023-11-19T06:09:54;46.58;;;13.65;;
78718;SDS011;68046;53.334;9.538;2023-11-19T06:12:20;32.35;;;12.88;;
78718;SDS011;68046;53.334;9.538;2023-11-19T06:14:45;39.90;;;12.77;;
78718;SDS011;68046;53.334;9.538;2023-11-19T06:17:11;35.20;;;12.75;;
78718;SDS011;68046;53.334;9.538;2023-11-19T06:19:36;34.40;;;11.48;;
78718;SDS011;68046;53.334;9.538;2023-11-19T06:22:02;40.95;;;12.57;;
78718;SDS011;68046;53.334;9.538;2023-11-19T06:24:27;38.13;;;12.20;;
78718;SDS011;68046;53.334;9.538;2023-11-19T06:26:54;37.20;;;11.85;;
78718;SDS011;68046;53.334;9.538;2023-11-19T06:29:19;36.08;;;12.13;;
78718;SDS011;68046;53.334;9.538;2023-11-19T06:31:45;32.10;;;11.23;;
78718;SDS011;68046;53.334;9.538;2023-11-19T06:34:10;37.47;;;10.65;;
78718;SDS011;68046;53.334;9.538;2023-11-19T06:36:36;33.60;;;12.13;;
78718;SDS011;68046;53.334;9.538;2023-11-19T06:39:01;30.95;;;11.48;;
78718;SDS011;68046;53.334;9.538;2023-11-19T06:41:27;23.60;;;10.40;;
78718;SDS011;68046;53.334;9.538;2023-11-19T06:43:54;41.10;;;10.75;;
78718;SDS011;68046;53.334;9.538;2023-11-19T06:46:19;38.65;;;10.52;;
78718;SDS011;68046;53.334;9.538;2023-11-19T06:48:45;23.30;;;9.55;;
78718;SDS011;68046;53.334;9.538;2023-11-19T06:51:10;33.58;;;9.20;;
78718;SDS011;68046;53.334;9.538;2023-11-19T06:53:36;37.60;;;9.38;;
78718;SDS011;68046;53.334;9.538;2023-11-19T06:56:01;32.08;;;9.98;;
78718;SDS011;68046;53.334;9.538;2023-11-19T06:58:27;30.15;;;8.20;;
78718;SDS011;68046;53.334;9.538;2023-11-19T07:00:54;25.63;;;7.78;;
78718;SDS011;68046;53.334;9.538;2023-11-19T07:03:19;25.42;;;7.80;;
78718;SDS011;68046;53.334;9.538;2023-11-19T07:05:45;28.70;;;7.40;;
78718;SDS011;68046;53.334;9.538;2023-11-19T07:08:10;23.35;;;6.78;;
78718;SDS011;68046;53.334;9.538;2023-11-19T07:10:35;20.27;;;6.32;;
78718;SDS011;68046;53.334;9.538;2023-11-19T07:13:01;30.00;;;7.22;;
78718;SDS011;68046;53.334;9.538;2023-11-19T07:15:26;26.98;;;6.47;;
78718;SDS011;68046;53.334;9.538;2023-11-19T07:17:53;24.80;;;6.75;;
78718;SDS011;68046;53.334;9.538;2023-11-19T07:20:18;26.50;;;6.32;;
78718;SDS011;68046;53.334;9.538;2023-11-19T07:22:44;28.63;;;6.53;;
78718;SDS011;68046;53.334;9.538;2023-11-19T07:25:09;21.30;;;5.72;;
78718;SDS011;68046;53.334;9.538;2023-11-19T07:27:35;35.00;;;5.28;;
78718;SDS011;68046;53.334;9.538;2023-11-19T07:30:00;27.25;;;5.47;;
78718;SDS011;68046;53.334;9.538;2023-11-19T07:32:25;25.25;;;6.07;;
78718;SDS011;68046;53.334;9.538;2023-11-19T07:34:52;44.28;;;7.35;;
78718;SDS011;68046;53.334;9.538;2023-11-19T07:37:17;41.13;;;6.28;;
78718;SDS011;68046;53.334;9.538;2023-11-19T07:39:43;21.95;;;5.15;;
78718;SDS011;68046;53.334;9.538;2023-11-19T07:42:08;32.67;;;5.75;;
78718;SDS011;68046;53.334;9.538;2023-11-19T07:44:34;27.98;;;5.18;;
78718;SDS011;68046;53.334;9.538;2023-11-19T07:46:59;26.77;;;5.18;;
78718;SDS011;68046;53.334;9.538;2023-11-19T07:49:24;28.25;;;4.43;;
78718;SDS011;68046;53.334;9.538;2023-11-19T07:51:51;29.25;;;5.55;;
78718;SDS011;68046;53.334;9.538;2023-11-19T07:54:17;21.10;;;5.15;;
78718;SDS011;68046;53.334;9.538;2023-11-19T07:56:42;25.25;;;5.65;;
78718;SDS011;68046;53.334;9.538;2023-11-19T07:59:07;39.15;;;5.47;;
78718;SDS011;68046;53.334;9.538;2023-11-19T08:01:33;43.10;;;5.40;;
78718;SDS011;68046;53.334;9.538;2023-11-19T08:03:58;23.25;;;4.93;;
78718;SDS011;68046;53.334;9.538;2023-11-19T08:06:24;22.20;;;4.38;;
78718;SDS011;68046;53.334;9.538;2023-11-19T08:08:51;26.83;;;5.57;;
78718;SDS011;68046;53.334;9.538;2023-11-19T08:11:16;25.83;;;4.50;;
78718;SDS011;68046;53.334;9.538;2023-11-19T08:13:41;39.80;;;5.55;;
78718;SDS011;68046;53.334;9.538;2023-11-19T08:16:07;28.80;;;5.40;;
78718;SDS011;68046;53.334;9.538;2023-11-19T08:18:32;38.58;;;5.35;;
78718;SDS011;68046;53.334;9.538;2023-11-19T08:20:58;16.85;;;4.07;;
78718;SDS011;68046;53.334;9.538;2023-11-19T08:23:23;24.98;;;4.55;;
78718;SDS011;68046;53.334;9.538;2023-11-19T08:25:50;33.75;;;5.72;;
78718;SDS011;68046;53.334;9.538;2023-11-19T08:28:15;31.40;;;4.82;;
78718;SDS011;68046;53.334;9.538;2023-11-19T08:30:41;23.27;;;5.90;;
78718;SDS011;68046;53.334;9.538;2023-11-19T08:33:06;25.98;;;5.13;;
78718;SDS011;68046;53.334;9.538;2023-11-19T08:35:32;25.05;;;4.70;;
78718;SDS011;68046;53.334;9.538;2023-11-19T08:37:57;34.97;;;5.05;;
78718;SDS011;68046;53.334;9.538;2023-11-19T08:40:23;20.98;;;4.25;;
78718;SDS011;68046;53.334;9.538;2023-11-19T08:42:49;20.77;;;3.90;;
78718;SDS011;68046;53.334;9.538;2023-11-19T08:45:15;29.05;;;4.47;;
78718;SDS011;68046;53.334;9.538;2023-11-19T08:47:40;34.95;;;5.78;;
78718;SDS011;68046;53.334;9.538;2023-11-19T08:50:06;21.10;;;4.07;;
78718;SDS011;68046;53.334;9.538;2023-11-19T08:52:32;39.15;;;5.35;;
78718;SDS011;68046;53.334;9.538;2023-11-19T08:54:57;30.40;;;4.50;;
78718;SDS011;68046;53.334;9.538;2023-11-19T08:57:23;27.40;;;4.32;;
78718;SDS011;68046;53.334;9.538;2023-11-19T08:59:49;25.02;;;4.40;;
78718;SDS011;68046;53.334;9.538;2023-11-19T09:02:15;23.48;;;5.30;;
78718;SDS011;68046;53.334;9.538;2023-11-19T09:04:40;19.73;;;5.00;;
78718;SDS011;68046;53.334;9.538;2023-11-19T09:07:06;27.88;;;4.88;;
78718;SDS011;68046;53.334;9.538;2023-11-19T09:09:31;38.50;;;4.93;;
78718;SDS011;68046;53.334;9.538;2023-11-19T09:11:57;29.83;;;4.45;;
78718;SDS011;68046;53.334;9.538;2023-11-19T09:14:22;35.47;;;5.82;;
78718;SDS011;68046;53.334;9.538;2023-11-19T09:16:49;28.35;;;4.93;;
78718;SDS011;68046;53.334;9.538;2023-11-19T09:19:14;33.58;;;5.88;;
78718;SDS011;68046;53.334;9.538;2023-11-19T09:21:40;30.50;;;5.03;;
78718;SDS011;68046;53.334;9.538;2023-11-19T09:24:05;51.90;;;5.13;;
78718;SDS011;68046;53.334;9.538;2023-11-19T09:26:31;39.80;;;4.82;;
78718;SDS011;68046;53.334;9.538;2023-11-19T09:28:56;41.47;;;5.60;;
78718;SDS011;68046;53.334;9.538;2023-11-19T09:31:22;38.10;;;4.95;;
78718;SDS011;68046;53.334;9.538;2023-11-19T09:33:48;32.92;;;4.85;;
78718;SDS011;68046;53.334;9.538;2023-11-19T09:36:14;31.45;;;5.88;;
78718;SDS011;68046;53.334;9.538;2023-11-19T09:38:39;42.10;;;5.45;;
78718;SDS011;68046;53.334;9.538;2023-11-19T09:41:05;32.67;;;4.70;;
78718;SDS011;68046;53.334;9.538;2023-11-19T09:43:31;29.45;;;4.63;;
78718;SDS011;68046;53.334;9.538;2023-11-19T09:45:56;30.30;;;4.88;;
78718;SDS011;68046;53.334;9.538;2023-11-19T09:48:28;35.00;;;4.40;;
78718;SDS011;68046;53.334;9.538;2023-11-19T09:50:54;24.73;;;4.43;;
78718;SDS011;68046;53.334;9.538;2023-11-19T09:53:20;29.23;;;4.65;;
78718;SDS011;68046;53.334;9.538;2023-11-19T09:55:45;25.77;;;5.45;;
78718;SDS011;68046;53.334;9.538;2023-11-19T09:58:12;30.20;;;5.45;;
78718;SDS011;68046;53.334;9.538;2023-11-19T10:00:39;21.90;;;3.45;;
78718;SDS011;68046;53.334;9.538;2023-11-19T10:03:05;35.78;;;4.43;;
78718;SDS011;68046;53.334;9.538;2023-11-19T10:05:32;17.23;;;3.95;;
78718;SDS011;68046;53.334;9.538;2023-11-19T10:07:59;35.88;;;4.25;;
78718;SDS011;68046;53.334;9.538;2023-11-19T10:10:26;28.73;;;4.28;;
78718;SDS011;68046;53.334;9.538;2023-11-19T10:12:51;23.20;;;4.95;;
78718;SDS011;68046;53.334;9.538;2023-11-19T10:15:21;34.30;;;5.68;;
78718;SDS011;68046;53.334;9.538;2023-11-19T10:17:47;32.20;;;4.07;;
78718;SDS011;68046;53.334;9.538;2023-11-19T10:20:12;28.98;;;4.55;;
78718;SDS011;68046;53.334;9.538;2023-11-19T10:22:38;24.25;;;4.45;;
78718;SDS011;68046;53.334;9.538;2023-11-19T10:25:05;27.88;;;3.53;;
78718;SDS011;68046;53.334;9.538;2023-11-19T10:30:12;27.20;;;3.67;;
78718;SDS011;68046;53.334;9.538;2023-11-19T10:32:38;27.55;;;4.65;;
78718;SDS011;68046;53.334;9.538;2023-11-19T10:35:04;27.55;;;5.30;;
78718;SDS011;68046;53.334;9.538;2023-11-19T10:37:30;21.35;;;5.18;;
78718;SDS011;68046;53.334;9.538;2023-11-19T10:39:55;24.73;;;5.00;;
78718;SDS011;68046;53.334;9.538;2023-11-19T10:42:22;32.55;;;4.60;;
78718;SDS011;68046;53.334;9.538;2023-11-19T10:44:48;21.60;;;3.88;;
78718;SDS011;68046;53.334;9.538;2023-11-19T10:47:13;33.10;;;3.85;;
78718;SDS011;68046;53.334;9.538;2023-11-19T10:49:39;34.90;;;4.25;;
78718;SDS011;68046;53.334;9.538;2023-11-19T10:52:05;26.13;;;4.50;;
78718;SDS011;68046;53.334;9.538;2023-11-19T10:54:33;34.60;;;5.43;;
78718;SDS011;68046;53.334;9.538;2023-11-19T10:56:59;28.85;;;4.90;;
78718;SDS011;68046;53.334;9.538;2023-11-19T10:59:29;32.65;;;4.18;;
78718;SDS011;68046;53.334;9.538;2023-11-19T11:01:55;43.30;;;5.43;;
78718;SDS011;68046;53.334;9.538;2023-11-19T11:04:23;29.30;;;4.18;;
78718;SDS011;68046;53.334;9.538;2023-11-19T11:06:49;23.02;;;4.63;;
78718;SDS011;68046;53.334;9.538;2023-11-19T11:09:16;30.88;;;4.38;;
78718;SDS011;68046;53.334;9.538;2023-11-19T11:11:42;33.03;;;4.63;;
78718;SDS011;68046;53.334;9.538;2023-11-19T11:14:12;20.50;;;4.65;;
78718;SDS011;68046;53.334;9.538;2023-11-19T11:16:40;40.38;;;5.90;;
78718;SDS011;68046;53.334;9.538;2023-11-19T11:19:08;25.83;;;4.15;;
78718;SDS011;68046;53.334;9.538;2023-11-19T11:21:34;17.15;;;3.45;;
78718;SDS011;68046;53.334;9.538;2023-11-19T11:24:06;35.40;;;5.25;;
78718;SDS011;68046;53.334;9.538;2023-11-19T11:29:46;36.00;;;5.88;;
78718;SDS011;68046;53.334;9.538;2023-11-19T11:32:21;23.88;;;4.63;;
78718;SDS011;68046;53.334;9.538;2023-11-19T11:35:03;23.25;;;4.72;;
78718;SDS011;68046;53.334;9.538;2023-11-19T11:37:43;29.80;;;4.57;;
78718;SDS011;68046;53.334;9.538;2023-11-19T11:40:13;22.90;;;4.32;;
78718;SDS011;68046;53.334;9.538;2023-11-19T11:42:39;32.72;;;4.60;;
78718;SDS011;68046;53.334;9.538;2023-11-19T11:45:05;23.40;;;3.97;;
78718;SDS011;68046;53.334;9.538;2023-11-19T11:50:33;22.17;;;4.30;;
78718;SDS011;68046;53.334;9.538;2023-11-19T11:53:13;29.35;;;5.47;;
78718;SDS011;68046;53.334;9.538;2023-11-19T11:55:51;21.95;;;4.18;;
78718;SDS011;68046;53.334;9.538;2023-11-19T11:58:19;22.60;;;4.32;;
78718;SDS011;68046;53.334;9.538;2023-11-19T12:00:44;35.70;;;4.90;;
78718;SDS011;68046;53.334;9.538;2023-11-19T12:03:13;22.45;;;4.10;;
78718;SDS011;68046;53.334;9.538;2023-11-19T12:05:40;30.00;;;3.80;;
78718;SDS011;68046;53.334;9.538;2023-11-19T12:08:07;24.67;;;4.45;;
78718;SDS011;68046;53.334;9.538;2023-11-19T12:10:36;23.58;;;4.05;;
78718;SDS011;68046;53.334;9.538;2023-11-19T12:13:04;25.48;;;5.40;;
78718;SDS011;68046;53.334;9.538;2023-11-19T12:15:30;27.38;;;4.53;;
78718;SDS011;68046;53.334;9.538;2023-11-19T12:17:55;18.27;;;3.85;;
78718;SDS011;68046;53.334;9.538;2023-11-19T12:20:23;21.50;;;3.47;;
78718;SDS011;68046;53.334;9.538;2023-11-19T12:22:50;14.85;;;4.38;;
78718;SDS011;68046;53.334;9.538;2023-11-19T12:25:16;25.17;;;4.10;;
78718;SDS011;68046;53.334;9.538;2023-11-19T12:27:43;15.57;;;3.63;;
78718;SDS011;68046;53.334;9.538;2023-11-19T12:30:10;20.92;;;3.88;;
78718;SDS011;68046;53.334;9.538;2023-11-19T12:32:39;24.08;;;4.18;;
78718;SDS011;68046;53.334;9.538;2023-11-19T12:35:05;19.20;;;3.72;;
78718;SDS011;68046;53.334;9.538;2023-11-19T12:37:32;25.58;;;4.78;;
78718;SDS011;68046;53.334;9.538;2023-11-19T12:39:58;24.65;;;4.82;;
78718;SDS011;68046;53.334;9.538;2023-11-19T12:42:34;22.05;;;3.75;;
78718;SDS011;68046;53.334;9.538;2023-11-19T12:45:00;32.88;;;4.53;;
78718;SDS011;68046;53.334;9.538;2023-11-19T12:47:25;21.63;;;3.88;;
78718;SDS011;68046;53.334;9.538;2023-11-19T12:49:57;19.77;;;4.43;;
78718;SDS011;68046;53.334;9.538;2023-11-19T12:52:23;20.80;;;4.55;;
78718;SDS011;68046;53.334;9.538;2023-11-19T12:54:50;21.63;;;3.75;;
78718;SDS011;68046;53.334;9.538;2023-11-19T12:57:15;31.70;;;4.18;;
78718;SDS011;68046;53.334;9.538;2023-11-19T12:59:41;33.60;;;5.38;;
78718;SDS011;68046;53.334;9.538;2023-11-19T13:02:07;39.00;;;5.43;;
78718;SDS011;68046;53.334;9.538;2023-11-19T13:04:32;29.67;;;4.57;;
78718;SDS011;68046;53.334;9.538;2023-11-19T13:06:58;36.40;;;5.47;;
78718;SDS011;68046;53.334;9.538;2023-11-19T13:09:24;23.25;;;4.00;;
78718;SDS011;68046;53.334;9.538;2023-11-19T13:11:52;47.10;;;4.53;;
78718;SDS011;68046;53.334;9.538;2023-11-19T13:14:19;25.88;;;4.40;;
78718;SDS011;68046;53.334;9.538;2023-11-19T13:16:45;24.52;;;4.47;;
78718;SDS011;68046;53.334;9.538;2023-11-19T13:19:10;32.85;;;5.65;;
78718;SDS011;68046;53.334;9.538;2023-11-19T13:21:36;20.88;;;3.60;;
78718;SDS011;68046;53.334;9.538;2023-11-19T13:24:01;27.70;;;3.95;;
78718;SDS011;68046;53.334;9.538;2023-11-19T13:26:27;21.65;;;4.45;;
78718;SDS011;68046;53.334;9.538;2023-11-19T13:28:53;23.80;;;5.60;;
78718;SDS011;68046;53.334;9.538;2023-11-19T13:31:19;21.17;;;3.83;;
78718;SDS011;68046;53.334;9.538;2023-11-19T13:33:44;32.47;;;4.75;;
78718;SDS011;68046;53.334;9.538;2023-11-19T13:36:10;32.15;;;5.15;;
78718;SDS011;68046;53.334;9.538;2023-11-19T13:38:35;27.35;;;5.03;;
78718;SDS011;68046;53.334;9.538;2023-11-19T13:41:01;22.75;;;4.63;;
78718;SDS011;68046;53.334;9.538;2023-11-19T13:43:27;30.05;;;5.07;;
78718;SDS011;68046;53.334;9.538;2023-11-19T13:45:54;26.52;;;5.38;;
78718;SDS011;68046;53.334;9.538;2023-11-19T13:48:19;18.58;;;4.50;;
78718;SDS011;68046;53.334;9.538;2023-11-19T13:50:45;30.40;;;4.72;;
78718;SDS011;68046;53.334;9.538;2023-11-19T13:53:10;33.55;;;4.45;;
78718;SDS011;68046;53.334;9.538;2023-11-19T13:55:36;21.80;;;4.82;;
78718;SDS011;68046;53.334;9.538;2023-11-19T13:58:01;25.13;;;4.35;;
78718;SDS011;68046;53.334;9.538;2023-11-19T14:00:26;32.90;;;4.55;;
78718;SDS011;68046;53.334;9.538;2023-11-19T14:02:53;28.20;;;5.32;;
78718;SDS011;68046;53.334;9.538;2023-11-19T14:05:19;21.25;;;4.53;;
78718;SDS011;68046;53.334;9.538;2023-11-19T14:07:44;19.65;;;4.63;;
78718;SDS011;68046;53.334;9.538;2023-11-19T14:10:10;22.02;;;4.80;;
78718;SDS011;68046;53.334;9.538;2023-11-19T14:12:36;25.95;;;4.13;;
78718;SDS011;68046;53.334;9.538;2023-11-19T14:15:01;11.68;;;3.53;;
78718;SDS011;68046;53.334;9.538;2023-11-19T14:17:27;21.63;;;3.97;;
78718;SDS011;68046;53.334;9.538;2023-11-19T14:19:54;19.23;;;4.10;;
78718;SDS011;68046;53.334;9.538;2023-11-19T14:22:19;22.10;;;4.47;;
78718;SDS011;68046;53.334;9.538;2023-11-19T14:24:45;24.92;;;3.30;;
78718;SDS011;68046;53.334;9.538;2023-11-19T14:27:10;23.48;;;3.03;;
78718;SDS011;68046;53.334;9.538;2023-11-19T14:29:36;27.77;;;3.40;;
78718;SDS011;68046;53.334;9.538;2023-11-19T14:32:02;19.25;;;3.20;;
78718;SDS011;68046;53.334;9.538;2023-11-19T14:34:27;15.70;;;3.50;;
78718;SDS011;68046;53.334;9.538;2023-11-19T14:36:54;21.40;;;4.07;;